sensor_id;sensor_type;location;lat;lon;timestamp;P1;durP1;ratioP1;P2;durP2;ratioP2
27113;SDS011;14648;49.730;8.614;2023-03-21T00:01:51;13.20;;;2.93;;
27113;SDS011;14648;49.730;8.614;2023-03-21T00:04:18;2.67;;;2.03;;
27113;SDS011;14648;49.730;8.614;2023-03-21T00:06:44;5.90;;;2.40;;
27113;SDS011;14648;49.730;8.614;2023-03-21T00:09:10;3.33;;;2.53;;
27113;SDS011;14648;49.730;8.614;2023-03-21T00:11:36;5.60;;;2.80;;
27113;SDS011;14648;49.730;8.614;2023-03-21T00:14:02;3.17;;;2.87;;
27113;SDS011;14648;49.730;8.614;2023-03-21T00:16:32;2.90;;;2.33;;
27113;SDS011;14648;49.730;8.614;2023-03-21T00:19:00;3.23;;;2.03;;
27113;SDS011;14648;49.730;8.614;2023-03-21T00:21:27;3.13;;;2.37;;
27113;SDS011;14648;49.730;8.614;2023-03-21T00:23:56;10.53;;;2.40;;
27113;SDS011;14648;49.730;8.614;2023-03-21T00:26:23;6.33;;;2.37;;
27113;SDS011;14648;49.730;8.614;2023-03-21T00:28:49;5.20;;;2.77;;
27113;SDS011;14648;49.730;8.614;2023-03-21T00:31:15;4.00;;;2.60;;
27113;SDS011;14648;49.730;8.614;2023-03-21T00:33:43;7.40;;;2.60;;
27113;SDS011;14648;49.730;8.614;2023-03-21T00:36:09;4.07;;;2.43;;
27113;SDS011;14648;49.730;8.614;2023-03-21T00:38:36;5.33;;;3.57;;
27113;SDS011;14648;49.730;8.614;2023-03-21T00:41:06;8.10;;;3.53;;
27113;SDS011;14648;49.730;8.614;2023-03-21T00:43:34;2.97;;;2.20;;
27113;SDS011;14648;49.730;8.614;2023-03-21T00:46:01;3.27;;;2.13;;
27113;SDS011;14648;49.730;8.614;2023-03-21T00:48:28;4.43;;;2.60;;
27113;SDS011;14648;49.730;8.614;2023-03-21T00:50:55;3.97;;;2.20;;
27113;SDS011;14648;49.730;8.614;2023-03-21T00:53:23;4.10;;;2.80;;
27113;SDS011;14648;49.730;8.614;2023-03-21T00:55:49;4.13;;;2.70;;
27113;SDS011;14648;49.730;8.614;2023-03-21T00:58:15;2.80;;;2.27;;
27113;SDS011;14648;49.730;8.614;2023-03-21T01:00:41;4.27;;;2.23;;
27113;SDS011;14648;49.730;8.614;2023-03-21T01:03:09;11.13;;;3.00;;
27113;SDS011;14648;49.730;8.614;2023-03-21T01:05:39;5.20;;;2.10;;
27113;SDS011;14648;49.730;8.614;2023-03-21T01:08:32;3.10;;;2.13;;
27113;SDS011;14648;49.730;8.614;2023-03-21T01:11:04;6.90;;;2.87;;
27113;SDS011;14648;49.730;8.614;2023-03-21T01:13:33;4.30;;;3.17;;
27113;SDS011;14648;49.730;8.614;2023-03-21T01:15:59;2.50;;;2.10;;
27113;SDS011;14648;49.730;8.614;2023-03-21T01:18:27;5.87;;;3.60;;
27113;SDS011;14648;49.730;8.614;2023-03-21T01:20:54;5.67;;;3.20;;
27113;SDS011;14648;49.730;8.614;2023-03-21T01:23:22;7.67;;;3.00;;
27113;SDS011;14648;49.730;8.614;2023-03-21T01:25:49;4.67;;;2.90;;
27113;SDS011;14648;49.730;8.614;2023-03-21T01:28:17;7.73;;;3.90;;
27113;SDS011;14648;49.730;8.614;2023-03-21T01:30:50;9.00;;;3.20;;
27113;SDS011;14648;49.730;8.614;2023-03-21T01:33:16;6.07;;;3.87;;
27113;SDS011;14648;49.730;8.614;2023-03-21T01:35:44;8.47;;;3.93;;
27113;SDS011;14648;49.730;8.614;2023-03-21T01:38:10;8.07;;;3.63;;
27113;SDS011;14648;49.730;8.614;2023-03-21T01:40:37;4.53;;;2.80;;
27113;SDS011;14648;49.730;8.614;2023-03-21T01:43:03;7.10;;;3.60;;
27113;SDS011;14648;49.730;8.614;2023-03-21T01:49:00;7.93;;;2.80;;
27113;SDS011;14648;49.730;8.614;2023-03-21T01:51:29;6.90;;;3.40;;
27113;SDS011;14648;49.730;8.614;2023-03-21T01:53:59;3.70;;;2.70;;
27113;SDS011;14648;49.730;8.614;2023-03-21T01:56:30;10.73;;;3.67;;
27113;SDS011;14648;49.730;8.614;2023-03-21T01:59:04;7.73;;;3.63;;
27113;SDS011;14648;49.730;8.614;2023-03-21T02:01:38;6.20;;;3.70;;
27113;SDS011;14648;49.730;8.614;2023-03-21T02:04:06;4.80;;;3.30;;
27113;SDS011;14648;49.730;8.614;2023-03-21T02:09:15;6.77;;;3.60;;
27113;SDS011;14648;49.730;8.614;2023-03-21T02:11:46;4.97;;;3.43;;
27113;SDS011;14648;49.730;8.614;2023-03-21T02:14:14;8.47;;;4.60;;
27113;SDS011;14648;49.730;8.614;2023-03-21T02:16:59;3.80;;;3.50;;
27113;SDS011;14648;49.730;8.614;2023-03-21T02:26:04;6.13;;;3.83;;
27113;SDS011;14648;49.730;8.614;2023-03-21T02:28:56;4.57;;;3.50;;
27113;SDS011;14648;49.730;8.614;2023-03-21T02:45:56;4.67;;;4.23;;
27113;SDS011;14648;49.730;8.614;2023-03-21T02:48:36;6.27;;;3.63;;
27113;SDS011;14648;49.730;8.614;2023-03-21T02:51:10;5.90;;;3.90;;
27113;SDS011;14648;49.730;8.614;2023-03-21T02:53:41;6.60;;;3.20;;
27113;SDS011;14648;49.730;8.614;2023-03-21T02:56:13;4.80;;;3.63;;
27113;SDS011;14648;49.730;8.614;2023-03-21T02:58:39;9.57;;;3.93;;
27113;SDS011;14648;49.730;8.614;2023-03-21T03:01:07;4.00;;;3.60;;
27113;SDS011;14648;49.730;8.614;2023-03-21T03:03:33;5.73;;;3.53;;
27113;SDS011;14648;49.730;8.614;2023-03-21T03:06:03;4.03;;;3.33;;
27113;SDS011;14648;49.730;8.614;2023-03-21T03:11:33;12.13;;;3.93;;
27113;SDS011;14648;49.730;8.614;2023-03-21T03:17:07;9.37;;;3.77;;
27113;SDS011;14648;49.730;8.614;2023-03-21T03:19:57;12.03;;;3.70;;
27113;SDS011;14648;49.730;8.614;2023-03-21T03:23:11;7.03;;;5.00;;
27113;SDS011;14648;49.730;8.614;2023-03-21T03:25:49;9.67;;;4.10;;
27113;SDS011;14648;49.730;8.614;2023-03-21T03:28:24;4.97;;;4.07;;
27113;SDS011;14648;49.730;8.614;2023-03-21T03:30:55;8.47;;;4.30;;
27113;SDS011;14648;49.730;8.614;2023-03-21T03:33:24;5.20;;;4.60;;
27113;SDS011;14648;49.730;8.614;2023-03-21T03:35:51;4.50;;;3.47;;
27113;SDS011;14648;49.730;8.614;2023-03-21T03:38:20;7.37;;;4.33;;
27113;SDS011;14648;49.730;8.614;2023-03-21T03:40:50;5.23;;;4.63;;
27113;SDS011;14648;49.730;8.614;2023-03-21T03:43:28;9.33;;;4.60;;
27113;SDS011;14648;49.730;8.614;2023-03-21T03:46:06;10.43;;;3.90;;
27113;SDS011;14648;49.730;8.614;2023-03-21T03:48:43;10.00;;;3.63;;
27113;SDS011;14648;49.730;8.614;2023-03-21T03:51:30;5.73;;;4.93;;
27113;SDS011;14648;49.730;8.614;2023-03-21T03:54:03;8.97;;;4.10;;
27113;SDS011;14648;49.730;8.614;2023-03-21T03:56:35;5.20;;;3.50;;
27113;SDS011;14648;49.730;8.614;2023-03-21T03:59:02;6.33;;;3.93;;
27113;SDS011;14648;49.730;8.614;2023-03-21T04:01:31;10.37;;;4.07;;
27113;SDS011;14648;49.730;8.614;2023-03-21T04:03:58;5.67;;;3.50;;
27113;SDS011;14648;49.730;8.614;2023-03-21T04:06:25;5.40;;;3.50;;
27113;SDS011;14648;49.730;8.614;2023-03-21T04:08:53;6.00;;;4.00;;
27113;SDS011;14648;49.730;8.614;2023-03-21T04:11:20;7.10;;;3.63;;
27113;SDS011;14648;49.730;8.614;2023-03-21T04:13:47;7.67;;;3.53;;
27113;SDS011;14648;49.730;8.614;2023-03-21T04:16:13;4.53;;;3.50;;
27113;SDS011;14648;49.730;8.614;2023-03-21T04:18:41;5.10;;;4.27;;
27113;SDS011;14648;49.730;8.614;2023-03-21T04:21:07;5.57;;;4.63;;
27113;SDS011;14648;49.730;8.614;2023-03-21T04:23:37;6.10;;;4.10;;
27113;SDS011;14648;49.730;8.614;2023-03-21T04:26:04;6.97;;;4.33;;
27113;SDS011;14648;49.730;8.614;2023-03-21T04:28:31;5.10;;;3.90;;
27113;SDS011;14648;49.730;8.614;2023-03-21T04:30:58;6.43;;;3.97;;
27113;SDS011;14648;49.730;8.614;2023-03-21T04:33:24;8.40;;;3.73;;
27113;SDS011;14648;49.730;8.614;2023-03-21T04:35:50;14.10;;;5.60;;
27113;SDS011;14648;49.730;8.614;2023-03-21T04:38:29;6.20;;;3.70;;
27113;SDS011;14648;49.730;8.614;2023-03-21T04:40:55;5.37;;;4.17;;
27113;SDS011;14648;49.730;8.614;2023-03-21T04:43:22;7.23;;;4.80;;
27113;SDS011;14648;49.730;8.614;2023-03-21T04:45:49;7.90;;;4.00;;
27113;SDS011;14648;49.730;8.614;2023-03-21T04:48:17;3.93;;;3.50;;
27113;SDS011;14648;49.730;8.614;2023-03-21T04:50:48;8.73;;;4.20;;
27113;SDS011;14648;49.730;8.614;2023-03-21T04:53:16;5.33;;;4.20;;
27113;SDS011;14648;49.730;8.614;2023-03-21T04:55:42;8.77;;;4.80;;
27113;SDS011;14648;49.730;8.614;2023-03-21T04:58:12;6.97;;;4.93;;
27113;SDS011;14648;49.730;8.614;2023-03-21T05:00:39;8.70;;;4.07;;
27113;SDS011;14648;49.730;8.614;2023-03-21T05:03:07;9.43;;;4.90;;
27113;SDS011;14648;49.730;8.614;2023-03-21T05:05:38;8.53;;;4.43;;
27113;SDS011;14648;49.730;8.614;2023-03-21T05:08:04;4.87;;;3.53;;
27113;SDS011;14648;49.730;8.614;2023-03-21T05:10:33;5.97;;;4.00;;
27113;SDS011;14648;49.730;8.614;2023-03-21T05:13:00;12.63;;;3.73;;
27113;SDS011;14648;49.730;8.614;2023-03-21T05:15:26;4.20;;;3.50;;
27113;SDS011;14648;49.730;8.614;2023-03-21T05:17:51;5.33;;;4.40;;
27113;SDS011;14648;49.730;8.614;2023-03-21T05:20:19;6.10;;;4.30;;
27113;SDS011;14648;49.730;8.614;2023-03-21T05:22:46;15.93;;;3.37;;
27113;SDS011;14648;49.730;8.614;2023-03-21T05:25:15;5.70;;;4.07;;
27113;SDS011;14648;49.730;8.614;2023-03-21T05:27:58;9.77;;;3.90;;
27113;SDS011;14648;49.730;8.614;2023-03-21T05:30:26;16.43;;;4.70;;
27113;SDS011;14648;49.730;8.614;2023-03-21T05:32:53;3.90;;;3.50;;
27113;SDS011;14648;49.730;8.614;2023-03-21T05:35:19;6.87;;;4.40;;
27113;SDS011;14648;49.730;8.614;2023-03-21T05:37:46;5.67;;;3.77;;
27113;SDS011;14648;49.730;8.614;2023-03-21T05:40:13;5.07;;;3.47;;
27113;SDS011;14648;49.730;8.614;2023-03-21T05:42:41;6.83;;;4.00;;
27113;SDS011;14648;49.730;8.614;2023-03-21T05:45:17;9.00;;;5.60;;
27113;SDS011;14648;49.730;8.614;2023-03-21T05:47:44;10.17;;;4.80;;
27113;SDS011;14648;49.730;8.614;2023-03-21T05:50:10;5.73;;;4.27;;
27113;SDS011;14648;49.730;8.614;2023-03-21T05:52:39;6.50;;;4.60;;
27113;SDS011;14648;49.730;8.614;2023-03-21T05:55:07;7.23;;;4.83;;
27113;SDS011;14648;49.730;8.614;2023-03-21T05:57:34;5.60;;;4.73;;
27113;SDS011;14648;49.730;8.614;2023-03-21T06:00:07;14.43;;;4.50;;
27113;SDS011;14648;49.730;8.614;2023-03-21T06:02:36;10.20;;;4.30;;
27113;SDS011;14648;49.730;8.614;2023-03-21T06:05:02;7.60;;;3.97;;
27113;SDS011;14648;49.730;8.614;2023-03-21T06:07:28;8.13;;;4.50;;
27113;SDS011;14648;49.730;8.614;2023-03-21T06:10:00;6.83;;;4.33;;
27113;SDS011;14648;49.730;8.614;2023-03-21T06:12:29;6.97;;;4.63;;
27113;SDS011;14648;49.730;8.614;2023-03-21T06:14:55;6.10;;;3.60;;
27113;SDS011;14648;49.730;8.614;2023-03-21T06:17:21;11.00;;;4.00;;
27113;SDS011;14648;49.730;8.614;2023-03-21T06:19:52;16.00;;;5.00;;
27113;SDS011;14648;49.730;8.614;2023-03-21T06:22:18;12.13;;;4.40;;
27113;SDS011;14648;49.730;8.614;2023-03-21T06:24:44;6.23;;;4.07;;
27113;SDS011;14648;49.730;8.614;2023-03-21T06:27:10;15.47;;;8.03;;
27113;SDS011;14648;49.730;8.614;2023-03-21T06:29:38;9.93;;;5.60;;
27113;SDS011;14648;49.730;8.614;2023-03-21T06:32:06;5.80;;;4.30;;
27113;SDS011;14648;49.730;8.614;2023-03-21T06:34:33;5.27;;;4.77;;
27113;SDS011;14648;49.730;8.614;2023-03-21T06:36:59;6.30;;;3.67;;
27113;SDS011;14648;49.730;8.614;2023-03-21T06:39:29;9.70;;;4.77;;
27113;SDS011;14648;49.730;8.614;2023-03-21T06:41:56;10.97;;;3.90;;
27113;SDS011;14648;49.730;8.614;2023-03-21T06:44:22;7.90;;;5.27;;
27113;SDS011;14648;49.730;8.614;2023-03-21T06:46:49;7.07;;;3.90;;
27113;SDS011;14648;49.730;8.614;2023-03-21T06:49:21;15.10;;;4.30;;
27113;SDS011;14648;49.730;8.614;2023-03-21T06:51:49;7.10;;;4.13;;
27113;SDS011;14648;49.730;8.614;2023-03-21T06:54:16;8.60;;;4.10;;
27113;SDS011;14648;49.730;8.614;2023-03-21T06:56:45;10.67;;;5.40;;
27113;SDS011;14648;49.730;8.614;2023-03-21T06:59:14;8.00;;;4.53;;
27113;SDS011;14648;49.730;8.614;2023-03-21T07:01:41;8.53;;;5.10;;
27113;SDS011;14648;49.730;8.614;2023-03-21T07:04:07;10.83;;;4.40;;
27113;SDS011;14648;49.730;8.614;2023-03-21T07:06:38;6.87;;;4.17;;
27113;SDS011;14648;49.730;8.614;2023-03-21T07:09:07;5.70;;;4.70;;
27113;SDS011;14648;49.730;8.614;2023-03-21T07:11:36;7.77;;;4.87;;
27113;SDS011;14648;49.730;8.614;2023-03-21T07:14:05;4.90;;;4.20;;
27113;SDS011;14648;49.730;8.614;2023-03-21T07:16:33;7.53;;;5.00;;
27113;SDS011;14648;49.730;8.614;2023-03-21T07:19:01;8.30;;;5.63;;
27113;SDS011;14648;49.730;8.614;2023-03-21T07:21:29;7.13;;;4.70;;
27113;SDS011;14648;49.730;8.614;2023-03-21T07:23:59;8.53;;;5.40;;
27113;SDS011;14648;49.730;8.614;2023-03-21T07:26:26;9.00;;;5.80;;
27113;SDS011;14648;49.730;8.614;2023-03-21T07:28:53;13.13;;;4.87;;
27113;SDS011;14648;49.730;8.614;2023-03-21T07:31:22;7.80;;;5.30;;
27113;SDS011;14648;49.730;8.614;2023-03-21T07:33:54;21.57;;;5.47;;
27113;SDS011;14648;49.730;8.614;2023-03-21T07:36:21;5.70;;;4.53;;
27113;SDS011;14648;49.730;8.614;2023-03-21T07:38:48;9.93;;;5.43;;
27113;SDS011;14648;49.730;8.614;2023-03-21T07:41:17;9.40;;;4.73;;
27113;SDS011;14648;49.730;8.614;2023-03-21T07:43:42;7.60;;;5.50;;
27113;SDS011;14648;49.730;8.614;2023-03-21T07:46:14;9.20;;;4.73;;
27113;SDS011;14648;49.730;8.614;2023-03-21T07:48:43;7.20;;;4.50;;
27113;SDS011;14648;49.730;8.614;2023-03-21T07:51:14;7.63;;;5.00;;
27113;SDS011;14648;49.730;8.614;2023-03-21T07:53:39;9.20;;;5.50;;
27113;SDS011;14648;49.730;8.614;2023-03-21T07:56:12;8.00;;;5.70;;
27113;SDS011;14648;49.730;8.614;2023-03-21T07:58:41;6.73;;;5.17;;
27113;SDS011;14648;49.730;8.614;2023-03-21T08:01:17;9.70;;;5.20;;
27113;SDS011;14648;49.730;8.614;2023-03-21T08:03:46;8.50;;;5.90;;
27113;SDS011;14648;49.730;8.614;2023-03-21T08:06:16;5.93;;;5.03;;
27113;SDS011;14648;49.730;8.614;2023-03-21T08:08:43;7.60;;;5.37;;
27113;SDS011;14648;49.730;8.614;2023-03-21T08:11:09;8.70;;;5.63;;
27113;SDS011;14648;49.730;8.614;2023-03-21T08:13:38;7.77;;;5.57;;
27113;SDS011;14648;49.730;8.614;2023-03-21T08:16:08;10.63;;;5.30;;
27113;SDS011;14648;49.730;8.614;2023-03-21T08:18:38;6.83;;;5.40;;
27113;SDS011;14648;49.730;8.614;2023-03-21T08:21:12;5.90;;;4.73;;
27113;SDS011;14648;49.730;8.614;2023-03-21T08:23:37;8.10;;;4.63;;
27113;SDS011;14648;49.730;8.614;2023-03-21T08:26:03;6.13;;;4.10;;
27113;SDS011;14648;49.730;8.614;2023-03-21T08:28:31;10.70;;;5.37;;
27113;SDS011;14648;49.730;8.614;2023-03-21T08:30:58;11.47;;;5.50;;
27113;SDS011;14648;49.730;8.614;2023-03-21T08:33:33;5.30;;;4.50;;
27113;SDS011;14648;49.730;8.614;2023-03-21T08:36:03;8.80;;;5.63;;
27113;SDS011;14648;49.730;8.614;2023-03-21T08:38:31;14.87;;;5.77;;
27113;SDS011;14648;49.730;8.614;2023-03-21T08:41:01;5.13;;;4.63;;
27113;SDS011;14648;49.730;8.614;2023-03-21T08:43:27;7.07;;;5.80;;
27113;SDS011;14648;49.730;8.614;2023-03-21T08:45:58;8.83;;;5.00;;
27113;SDS011;14648;49.730;8.614;2023-03-21T08:48:27;9.33;;;5.50;;
27113;SDS011;14648;49.730;8.614;2023-03-21T08:50:54;16.77;;;5.90;;
27113;SDS011;14648;49.730;8.614;2023-03-21T08:53:26;12.20;;;4.83;;
27113;SDS011;14648;49.730;8.614;2023-03-21T08:55:53;7.17;;;4.80;;
27113;SDS011;14648;49.730;8.614;2023-03-21T08:58:26;9.07;;;4.87;;
27113;SDS011;14648;49.730;8.614;2023-03-21T09:00:55;6.40;;;4.30;;
27113;SDS011;14648;49.730;8.614;2023-03-21T09:03:25;8.50;;;4.47;;
27113;SDS011;14648;49.730;8.614;2023-03-21T09:05:54;12.57;;;4.87;;
27113;SDS011;14648;49.730;8.614;2023-03-21T09:08:26;10.60;;;4.33;;
27113;SDS011;14648;49.730;8.614;2023-03-21T09:10:55;10.47;;;5.20;;
27113;SDS011;14648;49.730;8.614;2023-03-21T09:13:23;11.43;;;4.17;;
27113;SDS011;14648;49.730;8.614;2023-03-21T09:15:51;7.67;;;4.27;;
27113;SDS011;14648;49.730;8.614;2023-03-21T09:18:19;7.13;;;4.67;;
27113;SDS011;14648;49.730;8.614;2023-03-21T09:21:10;6.17;;;4.40;;
27113;SDS011;14648;49.730;8.614;2023-03-21T09:23:40;6.93;;;4.53;;
27113;SDS011;14648;49.730;8.614;2023-03-21T09:26:12;5.60;;;4.17;;
27113;SDS011;14648;49.730;8.614;2023-03-21T09:28:40;9.97;;;5.43;;
27113;SDS011;14648;49.730;8.614;2023-03-21T09:31:11;6.50;;;4.50;;
27113;SDS011;14648;49.730;8.614;2023-03-21T09:33:41;5.57;;;4.30;;
27113;SDS011;14648;49.730;8.614;2023-03-21T09:36:16;6.50;;;4.20;;
27113;SDS011;14648;49.730;8.614;2023-03-21T09:38:56;6.13;;;4.40;;
27113;SDS011;14648;49.730;8.614;2023-03-21T09:44:41;6.80;;;4.57;;
27113;SDS011;14648;49.730;8.614;2023-03-21T09:47:25;11.50;;;4.70;;
27113;SDS011;14648;49.730;8.614;2023-03-21T09:53:00;6.10;;;4.57;;
27113;SDS011;14648;49.730;8.614;2023-03-21T09:55:59;7.83;;;5.00;;
27113;SDS011;14648;49.730;8.614;2023-03-21T09:58:43;10.37;;;5.30;;
27113;SDS011;14648;49.730;8.614;2023-03-21T10:04:18;5.97;;;3.97;;
27113;SDS011;14648;49.730;8.614;2023-03-21T10:06:52;8.80;;;4.60;;
27113;SDS011;14648;49.730;8.614;2023-03-21T10:09:26;7.97;;;4.57;;
27113;SDS011;14648;49.730;8.614;2023-03-21T10:17:21;7.03;;;4.40;;
27113;SDS011;14648;49.730;8.614;2023-03-21T10:20:26;7.40;;;4.23;;
27113;SDS011;14648;49.730;8.614;2023-03-21T10:23:12;9.50;;;3.97;;
27113;SDS011;14648;49.730;8.614;2023-03-21T10:25:56;8.63;;;4.40;;
27113;SDS011;14648;49.730;8.614;2023-03-21T10:28:32;7.30;;;4.47;;
27113;SDS011;14648;49.730;8.614;2023-03-21T10:31:08;8.00;;;4.70;;
27113;SDS011;14648;49.730;8.614;2023-03-21T10:33:42;11.80;;;4.90;;
27113;SDS011;14648;49.730;8.614;2023-03-21T10:36:25;18.07;;;5.50;;
27113;SDS011;14648;49.730;8.614;2023-03-21T10:39:01;12.17;;;5.07;;
27113;SDS011;14648;49.730;8.614;2023-03-21T10:41:37;7.20;;;4.90;;
27113;SDS011;14648;49.730;8.614;2023-03-21T10:46:55;6.50;;;5.43;;
27113;SDS011;14648;49.730;8.614;2023-03-21T10:49:37;7.63;;;5.27;;
27113;SDS011;14648;49.730;8.614;2023-03-21T10:52:07;9.30;;;5.10;;
27113;SDS011;14648;49.730;8.614;2023-03-21T10:54:41;6.27;;;4.00;;
27113;SDS011;14648;49.730;8.614;2023-03-21T10:57:19;10.20;;;4.60;;
27113;SDS011;14648;49.730;8.614;2023-03-21T10:59:52;11.17;;;4.70;;
27113;SDS011;14648;49.730;8.614;2023-03-21T11:02:45;9.67;;;3.90;;
27113;SDS011;14648;49.730;8.614;2023-03-21T11:05:23;14.63;;;5.67;;
27113;SDS011;14648;49.730;8.614;2023-03-21T11:08:04;7.90;;;3.43;;
27113;SDS011;14648;49.730;8.614;2023-03-21T11:10:37;8.00;;;4.27;;
27113;SDS011;14648;49.730;8.614;2023-03-21T11:13:40;6.27;;;5.00;;
27113;SDS011;14648;49.730;8.614;2023-03-21T11:16:25;9.60;;;4.60;;
27113;SDS011;14648;49.730;8.614;2023-03-21T11:19:15;13.80;;;5.63;;
27113;SDS011;14648;49.730;8.614;2023-03-21T11:22:03;17.67;;;5.80;;
27113;SDS011;14648;49.730;8.614;2023-03-21T11:24:35;15.80;;;6.63;;
27113;SDS011;14648;49.730;8.614;2023-03-21T11:27:08;7.37;;;5.07;;
27113;SDS011;14648;49.730;8.614;2023-03-21T11:29:39;12.80;;;5.47;;
27113;SDS011;14648;49.730;8.614;2023-03-21T11:32:37;5.93;;;4.47;;
27113;SDS011;14648;49.730;8.614;2023-03-21T11:35:13;6.47;;;4.10;;
27113;SDS011;14648;49.730;8.614;2023-03-21T11:37:55;9.77;;;4.70;;
27113;SDS011;14648;49.730;8.614;2023-03-21T11:40:26;8.23;;;5.97;;
27113;SDS011;14648;49.730;8.614;2023-03-21T11:43:01;14.60;;;5.27;;
27113;SDS011;14648;49.730;8.614;2023-03-21T11:48:32;9.70;;;4.70;;
27113;SDS011;14648;49.730;8.614;2023-03-21T12:02:16;8.47;;;3.93;;
27113;SDS011;14648;49.730;8.614;2023-03-21T12:05:22;12.90;;;5.23;;
27113;SDS011;14648;49.730;8.614;2023-03-21T12:08:18;10.43;;;5.10;;
27113;SDS011;14648;49.730;8.614;2023-03-21T12:37:45;8.50;;;3.93;;
27113;SDS011;14648;49.730;8.614;2023-03-21T12:44:19;10.57;;;4.37;;
27113;SDS011;14648;49.730;8.614;2023-03-21T12:47:02;5.03;;;4.47;;
27113;SDS011;14648;49.730;8.614;2023-03-21T12:49:50;5.07;;;4.47;;
27113;SDS011;14648;49.730;8.614;2023-03-21T12:52:44;6.20;;;4.43;;
27113;SDS011;14648;49.730;8.614;2023-03-21T12:55:21;7.60;;;3.87;;
27113;SDS011;14648;49.730;8.614;2023-03-21T12:58:01;8.10;;;4.03;;
27113;SDS011;14648;49.730;8.614;2023-03-21T13:00:42;5.00;;;3.80;;
27113;SDS011;14648;49.730;8.614;2023-03-21T13:03:55;7.23;;;3.60;;
27113;SDS011;14648;49.730;8.614;2023-03-21T13:06:58;4.07;;;3.70;;
27113;SDS011;14648;49.730;8.614;2023-03-21T13:09:37;6.40;;;3.60;;
27113;SDS011;14648;49.730;8.614;2023-03-21T13:12:19;7.50;;;4.00;;
27113;SDS011;14648;49.730;8.614;2023-03-21T13:15:02;4.43;;;4.00;;
27113;SDS011;14648;49.730;8.614;2023-03-21T13:20:52;7.83;;;4.27;;
27113;SDS011;14648;49.730;8.614;2023-03-21T13:23:53;8.30;;;3.97;;
27113;SDS011;14648;49.730;8.614;2023-03-21T13:27:12;6.50;;;5.13;;
27113;SDS011;14648;49.730;8.614;2023-03-21T13:30:32;4.80;;;3.93;;
27113;SDS011;14648;49.730;8.614;2023-03-21T13:32:41;9.73;;;4.00;;
27113;SDS011;14648;49.730;8.614;2023-03-21T13:35:25;6.50;;;4.97;;
27113;SDS011;14648;49.730;8.614;2023-03-21T13:38:15;4.03;;;3.60;;
27113;SDS011;14648;49.730;8.614;2023-03-21T13:47:03;7.90;;;4.00;;
27113;SDS011;14648;49.730;8.614;2023-03-21T13:49:45;17.03;;;4.53;;
27113;SDS011;14648;49.730;8.614;2023-03-21T14:01:23;4.27;;;3.77;;
27113;SDS011;14648;49.730;8.614;2023-03-21T14:06:58;7.97;;;4.43;;
27113;SDS011;14648;49.730;8.614;2023-03-21T14:12:06;9.00;;;4.30;;
27113;SDS011;14648;49.730;8.614;2023-03-21T14:14:57;4.37;;;3.93;;
27113;SDS011;14648;49.730;8.614;2023-03-21T14:17:32;7.07;;;4.40;;
27113;SDS011;14648;49.730;8.614;2023-03-21T14:20:07;5.07;;;3.90;;
27113;SDS011;14648;49.730;8.614;2023-03-21T14:22:45;5.33;;;4.77;;
27113;SDS011;14648;49.730;8.614;2023-03-21T14:25:16;8.13;;;4.60;;
27113;SDS011;14648;49.730;8.614;2023-03-21T14:27:54;11.37;;;3.90;;
27113;SDS011;14648;49.730;8.614;2023-03-21T14:30:26;6.20;;;3.27;;
27113;SDS011;14648;49.730;8.614;2023-03-21T14:33:11;4.10;;;3.70;;
27113;SDS011;14648;49.730;8.614;2023-03-21T14:35:48;5.30;;;4.00;;
27113;SDS011;14648;49.730;8.614;2023-03-21T14:38:19;6.63;;;4.10;;
27113;SDS011;14648;49.730;8.614;2023-03-21T14:40:49;5.10;;;4.00;;
27113;SDS011;14648;49.730;8.614;2023-03-21T14:43:19;5.90;;;3.80;;
27113;SDS011;14648;49.730;8.614;2023-03-21T14:45:49;8.80;;;4.53;;
27113;SDS011;14648;49.730;8.614;2023-03-21T14:48:18;5.53;;;4.80;;
27113;SDS011;14648;49.730;8.614;2023-03-21T14:50:46;6.07;;;4.77;;
27113;SDS011;14648;49.730;8.614;2023-03-21T14:53:26;8.60;;;5.13;;
27113;SDS011;14648;49.730;8.614;2023-03-21T14:56:06;8.30;;;4.27;;
27113;SDS011;14648;49.730;8.614;2023-03-21T14:58:41;7.53;;;4.30;;
27113;SDS011;14648;49.730;8.614;2023-03-21T15:01:29;9.90;;;4.97;;
27113;SDS011;14648;49.730;8.614;2023-03-21T15:03:58;12.63;;;5.50;;
27113;SDS011;14648;49.730;8.614;2023-03-21T15:06:28;7.10;;;4.57;;
27113;SDS011;14648;49.730;8.614;2023-03-21T15:08:59;5.73;;;5.07;;
27113;SDS011;14648;49.730;8.614;2023-03-21T15:11:37;5.70;;;4.20;;
27113;SDS011;14648;49.730;8.614;2023-03-21T15:14:07;7.73;;;6.37;;
27113;SDS011;14648;49.730;8.614;2023-03-21T15:16:36;8.70;;;5.40;;
27113;SDS011;14648;49.730;8.614;2023-03-21T15:19:03;12.13;;;7.20;;
27113;SDS011;14648;49.730;8.614;2023-03-21T15:21:34;12.77;;;6.27;;
27113;SDS011;14648;49.730;8.614;2023-03-21T15:24:12;8.30;;;6.10;;
27113;SDS011;14648;49.730;8.614;2023-03-21T15:27:05;11.00;;;6.57;;
27113;SDS011;14648;49.730;8.614;2023-03-21T15:29:37;12.03;;;6.10;;
27113;SDS011;14648;49.730;8.614;2023-03-21T15:32:06;9.93;;;7.27;;
27113;SDS011;14648;49.730;8.614;2023-03-21T15:34:40;8.37;;;5.90;;
27113;SDS011;14648;49.730;8.614;2023-03-21T15:37:07;9.77;;;5.83;;
27113;SDS011;14648;49.730;8.614;2023-03-21T15:39:41;11.00;;;4.90;;
27113;SDS011;14648;49.730;8.614;2023-03-21T15:44:59;9.87;;;5.20;;
27113;SDS011;14648;49.730;8.614;2023-03-21T15:47:39;7.43;;;4.73;;
27113;SDS011;14648;49.730;8.614;2023-03-21T15:50:09;7.60;;;6.50;;
27113;SDS011;14648;49.730;8.614;2023-03-21T15:52:49;6.90;;;6.20;;
27113;SDS011;14648;49.730;8.614;2023-03-21T15:55:21;10.77;;;6.57;;
27113;SDS011;14648;49.730;8.614;2023-03-21T15:58:26;7.67;;;5.40;;
27113;SDS011;14648;49.730;8.614;2023-03-21T16:01:04;6.00;;;5.37;;
27113;SDS011;14648;49.730;8.614;2023-03-21T16:03:44;7.63;;;5.30;;
27113;SDS011;14648;49.730;8.614;2023-03-21T16:06:17;5.70;;;4.97;;
27113;SDS011;14648;49.730;8.614;2023-03-21T16:09:10;13.03;;;5.03;;
27113;SDS011;14648;49.730;8.614;2023-03-21T16:11:49;6.23;;;4.70;;
27113;SDS011;14648;49.730;8.614;2023-03-21T16:14:18;6.20;;;5.43;;
27113;SDS011;14648;49.730;8.614;2023-03-21T16:16:46;11.67;;;7.87;;
27113;SDS011;14648;49.730;8.614;2023-03-21T16:19:13;9.80;;;6.40;;
27113;SDS011;14648;49.730;8.614;2023-03-21T16:21:40;8.53;;;6.17;;
27113;SDS011;14648;49.730;8.614;2023-03-21T16:24:06;9.33;;;6.27;;
27113;SDS011;14648;49.730;8.614;2023-03-21T16:26:37;6.70;;;5.50;;
27113;SDS011;14648;49.730;8.614;2023-03-21T16:29:09;11.20;;;7.47;;
27113;SDS011;14648;49.730;8.614;2023-03-21T16:31:37;10.73;;;6.17;;
27113;SDS011;14648;49.730;8.614;2023-03-21T16:34:03;7.53;;;5.80;;
27113;SDS011;14648;49.730;8.614;2023-03-21T16:36:33;6.80;;;5.23;;
27113;SDS011;14648;49.730;8.614;2023-03-21T16:39:04;8.27;;;5.30;;
27113;SDS011;14648;49.730;8.614;2023-03-21T16:41:45;6.10;;;4.90;;
27113;SDS011;14648;49.730;8.614;2023-03-21T16:44:14;5.33;;;4.90;;
27113;SDS011;14648;49.730;8.614;2023-03-21T16:46:43;5.00;;;4.60;;
27113;SDS011;14648;49.730;8.614;2023-03-21T16:49:19;4.63;;;4.23;;
27113;SDS011;14648;49.730;8.614;2023-03-21T16:51:54;6.97;;;5.03;;
27113;SDS011;14648;49.730;8.614;2023-03-21T16:54:21;5.63;;;4.53;;
27113;SDS011;14648;49.730;8.614;2023-03-21T16:56:48;7.20;;;4.60;;
27113;SDS011;14648;49.730;8.614;2023-03-21T16:59:17;10.30;;;4.53;;
27113;SDS011;14648;49.730;8.614;2023-03-21T17:01:43;20.47;;;4.43;;
27113;SDS011;14648;49.730;8.614;2023-03-21T17:04:13;10.50;;;4.90;;
27113;SDS011;14648;49.730;8.614;2023-03-21T17:06:44;6.37;;;5.03;;
27113;SDS011;14648;49.730;8.614;2023-03-21T17:09:14;5.57;;;5.07;;
27113;SDS011;14648;49.730;8.614;2023-03-21T17:11:43;8.70;;;5.50;;
27113;SDS011;14648;49.730;8.614;2023-03-21T17:14:10;6.77;;;5.37;;
27113;SDS011;14648;49.730;8.614;2023-03-21T17:16:40;6.93;;;5.10;;
27113;SDS011;14648;49.730;8.614;2023-03-21T17:19:17;9.70;;;6.90;;
27113;SDS011;14648;49.730;8.614;2023-03-21T17:21:48;12.07;;;7.13;;